createdAt,value
2018-07-09T00:00:39.506Z,43.50
2018-07-09T00:03:10.338Z,44.20
2018-07-09T00:05:39.859Z,43.80
2018-07-09T00:08:09.958Z,44.60
2018-07-09T00:10:45.582Z,44.60
2018-07-09T00:13:14.948Z,43.60
2018-07-09T00:15:44.749Z,43.60
2018-07-09T00:18:14.356Z,44.70
2018-07-09T00:20:43.998Z,44.80
2018-07-09T00:23:14.655Z,42.20
2018-07-09T00:25:44.171Z,43.70
2018-07-09T00:28:13.818Z,39.00
2018-07-09T00:30:43.654Z,42.60
2018-07-09T00:33:13.308Z,42.50
2018-07-09T00:35:43.933Z,42.40
2018-07-09T00:38:13.688Z,41.80
2018-07-09T00:40:43.654Z,42.20
2018-07-09T00:43:14.285Z,39.90
2018-07-09T00:45:43.725Z,39.90
2018-07-09T00:48:13.297Z,40.80
2018-07-09T00:50:42.705Z,41.80
2018-07-09T00:53:12.824Z,41.90
2018-07-09T00:55:44.912Z,40.90
2018-07-09T00:58:14.346Z,40.80
2018-07-09T01:00:44.844Z,40.40
2018-07-09T01:03:14.376Z,41.30
2018-07-09T01:05:44.066Z,41.50
2018-07-09T01:08:17.867Z,40.60
2018-07-09T01:10:49.494Z,41.30
2018-07-09T01:13:19.612Z,41.30
2018-07-09T01:15:49.327Z,41.90
2018-07-09T01:18:19.893Z,41.70
2018-07-09T01:20:49.815Z,43.20
2018-07-09T01:23:19.846Z,45.30
2018-07-09T01:25:49.362Z,44.80
2018-07-09T01:28:19.955Z,45.60
2018-07-09T01:30:49.566Z,46.00
2018-07-09T01:33:19.979Z,45.50
2018-07-09T01:35:49.521Z,46.00
2018-07-09T01:38:18.931Z,45.70
2018-07-09T01:40:49.770Z,45.30
2018-07-09T01:43:19.569Z,44.60
2018-07-09T01:45:50.703Z,44.00
2018-07-09T01:48:20.499Z,43.90
2018-07-09T01:50:51.211Z,44.50
2018-07-09T01:53:22.074Z,44.50
2018-07-09T01:55:53.035Z,44.30
2018-07-09T01:58:22.566Z,46.20
2018-07-09T02:00:52.252Z,47.00
2018-07-09T02:03:21.574Z,47.10
2018-07-09T02:05:51.104Z,47.40
2018-07-09T02:08:21.579Z,49.80
2018-07-09T02:10:52.204Z,49.70
2018-07-09T02:13:21.645Z,50.50
2018-07-09T02:15:51.472Z,51.30
2018-07-09T02:18:21.197Z,51.50
2018-07-09T02:20:50.851Z,51.50
2018-07-09T02:23:20.275Z,50.90
2018-07-09T02:25:50.072Z,52.00
2018-07-09T02:28:20.579Z,52.10
2018-07-09T02:30:50.042Z,51.90
2018-07-09T02:33:19.420Z,52.50
2018-07-09T02:35:48.652Z,53.70
2018-07-09T02:38:18.540Z,53.30
2018-07-09T02:40:48.326Z,53.50
2018-07-09T02:43:18.098Z,52.40
2018-07-09T02:45:47.518Z,51.60
2018-07-09T02:48:16.949Z,52.50
2018-07-09T02:50:46.721Z,52.40
2018-07-09T02:53:18.602Z,52.20
2018-07-09T02:55:47.977Z,52.00
2018-07-09T02:58:17.399Z,51.90
2018-07-09T03:00:46.939Z,51.70
2018-07-09T03:03:16.521Z,51.90
2018-07-09T03:05:46.333Z,52.00
2018-07-09T03:08:17.164Z,51.90
2018-07-09T03:10:46.666Z,52.20
2018-07-09T03:13:16.135Z,52.50
2018-07-09T03:15:45.764Z,52.70
2018-07-09T03:18:15.691Z,52.50
2018-07-09T03:20:45.322Z,53.20
2018-07-09T03:23:14.640Z,52.90
2018-07-09T03:25:44.299Z,53.00
2018-07-09T03:28:14.325Z,53.50
2018-07-09T03:30:43.957Z,53.50
2018-07-09T03:33:13.217Z,54.00
2018-07-09T03:35:43.742Z,53.90
2018-07-09T03:38:14.319Z,54.50
2018-07-09T03:40:43.892Z,54.40
2018-07-09T03:43:13.919Z,54.10
2018-07-09T03:45:45.570Z,54.40
2018-07-09T03:48:14.989Z,54.10
2018-07-09T03:50:44.649Z,54.80
2018-07-09T03:53:14.396Z,55.40
2018-07-09T03:55:43.724Z,55.90
2018-07-09T03:58:13.029Z,57.60
2018-07-09T04:00:42.582Z,57.70
2018-07-09T04:03:12.969Z,58.30
2018-07-09T04:05:42.634Z,58.30
2018-07-09T04:08:11.782Z,58.50
2018-07-09T04:10:41.325Z,59.30
2018-07-09T04:13:12.010Z,60.80
2018-07-09T04:15:41.649Z,61.40
2018-07-09T04:18:11.843Z,61.90
2018-07-09T04:20:41.602Z,62.50
2018-07-09T04:23:11.724Z,64.20
2018-07-09T04:25:41.289Z,64.20
2018-07-09T04:28:10.900Z,64.80
2018-07-09T04:30:42.154Z,65.00
2018-07-09T04:33:11.589Z,65.60
2018-07-09T04:35:42.326Z,64.90
2018-07-09T04:38:11.389Z,65.70
2018-07-09T04:40:41.198Z,66.10
2018-07-09T04:43:11.120Z,66.40
2018-07-09T04:45:42.095Z,67.00
2018-07-09T04:48:11.565Z,67.20
2018-07-09T04:50:42.424Z,67.10
2018-07-09T04:53:12.328Z,67.50
2018-07-09T04:55:44.982Z,67.50
2018-07-09T04:58:14.402Z,68.00
2018-07-09T05:00:44.701Z,68.10
2018-07-09T05:03:15.659Z,67.70
2018-07-09T05:05:45.295Z,67.20
2018-07-09T05:08:14.871Z,66.80
2018-07-09T05:10:44.818Z,66.90
2018-07-09T05:13:15.180Z,67.20
2018-07-09T05:15:44.840Z,67.20
2018-07-09T05:18:14.646Z,67.20
2018-07-09T05:20:44.621Z,67.60
2018-07-09T05:23:14.970Z,67.90
2018-07-09T05:25:45.956Z,67.90
2018-07-09T05:28:15.807Z,68.00
2018-07-09T05:30:46.614Z,68.80
2018-07-09T05:33:16.296Z,69.20
2018-07-09T05:35:45.499Z,69.60
2018-07-09T05:38:15.581Z,69.70
2018-07-09T05:40:45.173Z,69.70
2018-07-09T05:43:15.097Z,70.20
2018-07-09T05:45:44.810Z,70.10
2018-07-09T05:48:14.465Z,70.40
2018-07-09T05:50:43.973Z,70.60
2018-07-09T05:53:14.750Z,70.30
2018-07-09T05:55:44.508Z,70.90
2018-07-09T05:58:14.963Z,70.70
2018-07-09T06:00:44.847Z,70.70
2018-07-09T06:03:16.024Z,70.10
2018-07-09T06:05:45.645Z,70.90
2018-07-09T06:08:15.422Z,70.80
2018-07-09T06:10:45.579Z,72.10
2018-07-09T06:13:16.790Z,72.00
2018-07-09T06:15:47.784Z,72.90
2018-07-09T06:18:17.160Z,72.10
2018-07-09T06:20:46.750Z,71.80
2018-07-09T06:23:16.131Z,72.40
2018-07-09T06:25:46.077Z,71.90
2018-07-09T06:28:15.939Z,73.30
2018-07-09T06:30:47.216Z,73.40
2018-07-09T06:33:17.128Z,72.80
2018-07-09T06:35:46.114Z,72.90
2018-07-09T06:38:15.668Z,73.10
2018-07-09T06:40:45.422Z,73.10
2018-07-09T06:43:15.866Z,73.40
2018-07-09T06:45:45.537Z,74.10
2018-07-09T06:48:15.388Z,74.00
2018-07-09T06:50:45.101Z,73.80
2018-07-09T06:53:15.950Z,73.80
2018-07-09T06:55:45.511Z,73.50
2018-07-09T06:58:15.100Z,73.60
2018-07-09T07:00:44.541Z,73.70
2018-07-09T07:03:14.020Z,74.50
2018-07-09T07:05:43.517Z,74.90
2018-07-09T07:08:12.843Z,75.10
2018-07-09T07:10:43.480Z,75.30
2018-07-09T07:13:14.525Z,76.10
2018-07-09T07:15:44.062Z,76.10
2018-07-09T07:18:13.641Z,76.50
2018-07-09T07:20:42.910Z,76.60
2018-07-09T07:23:12.634Z,76.50
2018-07-09T07:25:42.248Z,77.20
2018-07-09T07:28:11.828Z,77.30
2018-07-09T07:30:41.569Z,77.20
2018-07-09T07:33:12.057Z,76.70
2018-07-09T07:35:42.165Z,76.70
2018-07-09T07:38:11.888Z,76.80
2018-07-09T07:40:41.518Z,76.80
2018-07-09T07:43:11.399Z,76.40
2018-07-09T07:45:40.944Z,76.50
2018-07-09T07:48:10.692Z,76.60
2018-07-09T07:50:40.119Z,77.90
2018-07-09T07:53:09.711Z,78.10
2018-07-09T07:55:39.525Z,78.50
2018-07-09T07:58:08.890Z,78.80
2018-07-09T08:00:38.349Z,79.30
2018-07-09T08:03:08.019Z,79.40
2018-07-09T08:05:37.856Z,79.40
2018-07-09T08:08:08.630Z,79.80
2018-07-09T08:10:38.825Z,79.40
2018-07-09T08:13:27.996Z,79.40
2018-07-09T08:15:38.823Z,79.00
2018-07-09T08:18:08.955Z,78.90
2018-07-09T08:20:38.657Z,78.60
2018-07-09T08:23:08.504Z,78.30
2018-07-09T08:25:37.892Z,78.70
2018-07-09T08:28:07.453Z,78.60
2018-07-09T08:30:37.040Z,79.50
2018-07-09T08:33:06.529Z,78.90
2018-07-09T08:35:36.105Z,78.20
2018-07-09T08:38:05.820Z,78.80
2018-07-09T08:40:35.168Z,78.60
2018-07-09T08:43:04.708Z,78.30
2018-07-09T08:45:34.457Z,77.20
2018-07-09T08:48:03.941Z,78.00
2018-07-09T08:50:33.859Z,78.10
2018-07-09T08:53:05.304Z,77.70
2018-07-09T08:55:35.479Z,78.50
2018-07-09T08:58:07.463Z,78.80
2018-07-09T09:00:37.201Z,77.90
2018-07-09T09:03:06.929Z,77.60
2018-07-09T09:05:37.029Z,77.00
2018-07-09T09:08:06.753Z,77.10
2018-07-09T09:10:36.159Z,76.20
2018-07-09T09:13:06.755Z,75.60
2018-07-09T09:15:36.117Z,75.60
2018-07-09T09:18:05.726Z,75.40
2018-07-09T09:20:35.271Z,75.30
2018-07-09T09:23:05.266Z,75.60
2018-07-09T09:25:35.681Z,77.20
2018-07-09T09:28:05.716Z,77.10
2018-07-09T09:30:37.078Z,77.40
2018-07-09T09:33:06.133Z,77.40
2018-07-09T09:35:35.632Z,77.00
2018-07-09T09:38:05.567Z,77.90
2018-07-09T09:40:35.212Z,77.90
2018-07-09T09:43:04.770Z,78.90
2018-07-09T09:45:34.402Z,79.10
2018-07-09T09:48:03.988Z,79.20
2018-07-09T09:50:33.910Z,79.40
2018-07-09T09:53:02.854Z,79.20
2018-07-09T09:55:32.539Z,79.00
2018-07-09T09:58:02.145Z,79.00
2018-07-09T10:00:31.839Z,78.90
2018-07-09T10:03:01.434Z,78.60
2018-07-09T10:05:31.226Z,79.00
2018-07-09T10:08:00.850Z,79.60
2018-07-09T10:10:31.435Z,78.90
2018-07-09T10:13:01.293Z,79.50
2018-07-09T10:15:31.534Z,79.60
2018-07-09T10:18:01.143Z,79.70
2018-07-09T10:20:30.588Z,79.80
2018-07-09T10:23:00.158Z,79.90
2018-07-09T10:25:29.700Z,80.30
2018-07-09T10:27:59.239Z,80.20
2018-07-09T10:30:28.861Z,80.20
2018-07-09T10:32:58.506Z,80.30
2018-07-09T10:35:27.761Z,80.50
2018-07-09T10:37:57.289Z,81.00
2018-07-09T10:40:27.018Z,80.90
2018-07-09T10:42:56.554Z,81.10
2018-07-09T10:45:26.196Z,81.10
2018-07-09T10:47:55.802Z,81.20
2018-07-09T10:50:25.386Z,81.30
2018-07-09T10:52:55.236Z,81.10
2018-07-09T10:55:24.906Z,81.00
2018-07-09T10:57:54.476Z,81.20
2018-07-09T11:00:24.372Z,80.90
2018-07-09T11:02:53.810Z,80.80
2018-07-09T11:05:24.579Z,81.20
2018-07-09T11:07:54.242Z,80.70
2018-07-09T11:10:23.862Z,80.50
2018-07-09T11:12:53.220Z,80.00
2018-07-09T11:15:23.979Z,77.90
2018-07-09T11:17:54.767Z,77.90
2018-07-09T11:20:24.213Z,78.10
2018-07-09T11:22:53.426Z,78.60
2018-07-09T11:25:23.578Z,78.60
2018-07-09T11:27:53.075Z,78.90
2018-07-09T11:30:22.730Z,79.40
2018-07-09T11:32:52.013Z,79.10
2018-07-09T11:35:22.342Z,79.40
2018-07-09T11:37:52.072Z,79.40
2018-07-09T11:40:21.484Z,79.40
2018-07-09T11:42:50.898Z,79.60
2018-07-09T11:45:20.542Z,80.00
2018-07-09T11:47:49.936Z,80.00
2018-07-09T11:50:19.712Z,80.10
2018-07-09T11:52:49.111Z,80.10
2018-07-09T11:55:19.146Z,80.30
2018-07-09T11:57:48.835Z,80.50
2018-07-09T12:00:18.660Z,80.30
2018-07-09T12:02:49.299Z,80.30
2018-07-09T12:05:18.844Z,80.40
2018-07-09T12:07:48.488Z,80.10
2018-07-09T12:10:18.178Z,80.20
2018-07-09T12:12:47.731Z,80.90
2018-07-09T12:15:18.507Z,80.70
2018-07-09T12:17:48.141Z,80.60
2018-07-09T12:20:17.751Z,80.70
2018-07-09T12:22:47.933Z,80.40
2018-07-09T12:25:17.703Z,80.10
2018-07-09T12:27:47.180Z,79.70
2018-07-09T12:30:16.895Z,79.50
2018-07-09T12:32:47.341Z,80.50
2018-07-09T12:35:17.350Z,80.50
2018-07-09T12:37:46.589Z,80.40
2018-07-09T12:40:17.041Z,80.60
2018-07-09T12:42:46.785Z,80.10
2018-07-09T12:45:17.278Z,80.60
2018-07-09T12:47:46.745Z,80.60
2018-07-09T12:50:16.228Z,81.00
2018-07-09T12:52:45.824Z,80.70
2018-07-09T12:55:15.371Z,80.90
2018-07-09T12:57:45.035Z,80.80
2018-07-09T13:00:16.131Z,80.50
2018-07-09T13:02:45.757Z,80.50
2018-07-09T13:05:15.914Z,80.90
2018-07-09T13:07:45.507Z,80.60
2018-07-09T13:10:15.065Z,80.50
2018-07-09T13:12:47.545Z,80.00
2018-07-09T13:15:17.075Z,79.70
2018-07-09T13:17:46.650Z,79.60
2018-07-09T13:20:16.911Z,79.00
2018-07-09T13:22:46.498Z,78.80
2018-07-09T13:25:16.108Z,79.00
2018-07-09T13:27:45.691Z,79.50
2018-07-09T13:30:16.083Z,80.10
2018-07-09T13:32:46.404Z,80.00
2018-07-09T13:35:16.416Z,79.90
2018-07-09T13:37:46.261Z,79.60
2018-07-09T13:40:16.922Z,79.70
2018-07-09T13:42:46.884Z,79.60
2018-07-09T13:45:16.244Z,79.80
2018-07-09T13:47:45.707Z,79.90
2018-07-09T13:50:15.311Z,80.00
2018-07-09T13:52:47.067Z,80.10
2018-07-09T13:55:16.645Z,80.10
2018-07-09T13:57:46.177Z,80.00
2018-07-09T14:00:16.544Z,80.20
2018-07-09T14:02:46.100Z,79.80
2018-07-09T14:05:15.996Z,79.60
2018-07-09T14:07:45.566Z,79.30
2018-07-09T14:10:15.216Z,78.80
2018-07-09T14:12:44.925Z,79.40
2018-07-09T14:15:15.478Z,78.00
2018-07-09T14:17:44.977Z,77.90
2018-07-09T14:20:23.139Z,77.50
2018-07-09T14:22:53.072Z,77.70
2018-07-09T14:25:23.443Z,78.40
2018-07-09T14:27:53.724Z,78.00
2018-07-09T14:30:24.816Z,77.30
2018-07-09T14:32:54.420Z,77.30
2018-07-09T14:35:23.738Z,77.40
2018-07-09T14:37:54.531Z,78.10
2018-07-09T14:40:24.067Z,76.80
2018-07-09T14:42:53.874Z,76.60
2018-07-09T14:45:23.146Z,76.60
2018-07-09T14:47:52.989Z,76.50
2018-07-09T14:50:22.716Z,75.50
2018-07-09T14:52:51.972Z,75.40
2018-07-09T14:55:22.988Z,74.90
2018-07-09T14:57:53.184Z,74.60
2018-07-09T15:00:23.041Z,74.60
2018-07-09T15:02:52.673Z,74.60
2018-07-09T15:05:22.501Z,73.10
2018-07-09T15:07:52.302Z,72.20
2018-07-09T15:10:23.120Z,71.80
2018-07-09T15:12:52.341Z,70.60
2018-07-09T15:15:21.851Z,70.80
2018-07-09T15:17:51.580Z,69.40
2018-07-09T15:20:21.218Z,69.70
2018-07-09T15:22:52.547Z,67.80
2018-07-09T15:25:22.316Z,67.80
2018-07-09T15:27:51.942Z,68.10
2018-07-09T15:30:22.035Z,67.50
2018-07-09T15:32:51.793Z,67.80
2018-07-09T15:35:22.772Z,67.50
2018-07-09T15:37:52.299Z,66.60
2018-07-09T15:40:21.739Z,67.00
2018-07-09T15:42:51.163Z,66.90
2018-07-09T15:45:21.174Z,66.30
2018-07-09T15:47:51.145Z,65.40
2018-07-09T15:50:22.207Z,65.10
2018-07-09T15:52:54.261Z,64.90
2018-07-09T15:55:23.432Z,65.20
2018-07-09T15:57:52.861Z,64.20
2018-07-09T16:02:50.419Z,65.20
2018-07-09T16:05:20.271Z,64.90
2018-07-09T16:07:51.816Z,65.30
2018-07-09T16:10:21.696Z,64.70
2018-07-09T16:12:51.048Z,64.80
2018-07-09T16:15:20.918Z,65.70
2018-07-09T16:17:50.404Z,66.20
2018-07-09T16:20:19.906Z,65.10
2018-07-09T16:22:49.287Z,64.70
2018-07-09T16:25:18.953Z,65.10
2018-07-09T16:27:48.340Z,64.50
2018-07-09T16:30:17.814Z,65.80
2018-07-09T16:32:47.763Z,65.40
2018-07-09T16:35:17.476Z,64.60
2018-07-09T16:37:46.901Z,64.30
2018-07-09T16:40:16.685Z,64.50
2018-07-09T16:42:46.879Z,64.50
2018-07-09T16:45:17.574Z,64.60
2018-07-09T16:47:48.494Z,64.50
2018-07-09T16:50:19.090Z,64.10
2018-07-09T16:52:48.635Z,64.20
2018-07-09T16:55:18.298Z,65.00
2018-07-09T16:57:48.706Z,63.30
2018-07-09T17:00:18.361Z,63.20
2018-07-09T17:02:48.009Z,62.40
2018-07-09T17:05:18.097Z,61.70
2018-07-09T17:07:47.663Z,61.30
2018-07-09T17:10:17.369Z,61.30
2018-07-09T17:12:47.704Z,61.80
2018-07-09T17:15:17.875Z,59.40
2018-07-09T17:17:47.588Z,59.40
2018-07-09T17:20:17.984Z,59.10
2018-07-09T17:22:48.591Z,57.70
2018-07-09T17:25:18.739Z,57.90
2018-07-09T17:27:48.915Z,57.80
2018-07-09T17:30:18.911Z,57.00
2018-07-09T17:32:48.498Z,57.00
2018-07-09T17:35:18.084Z,56.70
2018-07-09T17:37:48.991Z,56.50
2018-07-09T17:40:18.960Z,55.80
2018-07-09T17:42:48.328Z,53.50
2018-07-09T17:45:18.246Z,51.70
2018-07-09T17:47:47.585Z,52.10
2018-07-09T17:50:17.279Z,52.00
2018-07-09T17:52:46.748Z,52.80
2018-07-09T17:55:16.348Z,49.10
2018-07-09T17:57:46.695Z,44.10
2018-07-09T18:00:16.563Z,44.10
2018-07-09T18:02:46.197Z,38.00
2018-07-09T18:05:15.711Z,36.50
2018-07-09T18:07:45.127Z,34.50
2018-07-09T18:10:15.968Z,34.30
2018-07-09T18:12:45.460Z,39.00
2018-07-09T18:15:15.028Z,40.90
2018-07-09T18:17:44.644Z,42.90
2018-07-09T18:20:16.250Z,44.60
2018-07-09T18:22:45.833Z,44.30
2018-07-09T18:25:15.308Z,46.20
2018-07-09T18:27:45.427Z,46.30
2018-07-09T18:30:16.051Z,46.30
2018-07-09T18:32:46.243Z,46.80
2018-07-09T18:35:15.726Z,48.20
2018-07-09T18:37:45.296Z,48.30
2018-07-09T18:40:14.949Z,49.10
2018-07-09T18:42:44.555Z,47.50
2018-07-09T18:45:13.965Z,48.80
2018-07-09T18:47:43.309Z,48.00
2018-07-09T18:50:14.278Z,47.80
2018-07-09T18:52:43.853Z,47.80
2018-07-09T18:55:13.169Z,48.00
2018-07-09T18:57:43.314Z,49.20
2018-07-09T19:00:13.212Z,49.20
2018-07-09T19:02:42.608Z,49.80
2018-07-09T19:05:12.299Z,50.10
2018-07-09T19:07:42.988Z,50.30
2018-07-09T19:10:12.390Z,50.40
2018-07-09T19:12:42.777Z,51.60
2018-07-09T19:15:13.109Z,51.90
2018-07-09T19:17:44.871Z,51.90
2018-07-09T19:23:12.973Z,53.20
2018-07-09T19:25:41.551Z,52.60
2018-07-09T19:28:10.481Z,52.40
2018-07-09T19:30:38.906Z,51.60
2018-07-09T19:33:07.788Z,52.80
2018-07-09T19:35:36.313Z,52.60
2018-07-09T19:38:04.940Z,52.30
2018-07-09T19:40:33.773Z,53.30
2018-07-09T19:43:02.421Z,53.30
2018-07-09T19:45:31.131Z,52.80
2018-07-09T19:48:00.749Z,54.20
2018-07-09T19:50:30.026Z,53.70
2018-07-09T19:52:59.592Z,53.20
2018-07-09T19:55:28.307Z,52.90
2018-07-09T19:57:57.291Z,53.80
2018-07-09T20:00:25.794Z,55.40
2018-07-09T20:02:54.370Z,54.40
2018-07-09T20:05:23.064Z,54.90
2018-07-09T20:07:51.664Z,56.30
2018-07-09T20:10:38.252Z,56.50
2018-07-09T20:13:08.149Z,57.70
2018-07-09T20:18:30.394Z,56.70
2018-07-09T20:20:59.632Z,57.10
2018-07-09T20:23:28.079Z,57.80
2018-07-09T20:25:56.927Z,58.70
2018-07-09T20:28:25.471Z,57.80
2018-07-09T20:30:54.184Z,57.70
2018-07-09T20:33:23.505Z,58.00
2018-07-09T20:35:52.141Z,57.70
2018-07-09T20:38:20.926Z,58.10
2018-07-09T20:40:49.436Z,58.70
2018-07-09T20:43:18.357Z,58.70
2018-07-09T20:45:47.816Z,57.70
2018-07-09T20:48:16.383Z,58.00
2018-07-09T20:50:45.794Z,57.30
2018-07-09T20:53:14.578Z,57.20
2018-07-09T20:55:42.762Z,57.40
2018-07-09T20:58:12.147Z,56.50
2018-07-09T21:00:40.844Z,56.40
2018-07-09T21:03:09.431Z,57.00
2018-07-09T21:05:38.223Z,56.20
2018-07-09T21:08:08.645Z,55.40
2018-07-09T21:10:37.437Z,55.30
2018-07-09T21:13:05.825Z,56.40
2018-07-09T21:15:34.663Z,55.70
2018-07-09T21:18:05.607Z,55.30
2018-07-09T21:20:34.224Z,54.90
2018-07-09T21:23:02.909Z,55.50
2018-07-09T21:25:31.432Z,56.70
2018-07-09T21:27:59.771Z,56.30
2018-07-09T21:30:29.255Z,57.50
2018-07-09T21:32:58.662Z,57.40
2018-07-09T21:35:28.872Z,57.90
2018-07-09T21:37:57.632Z,57.60
2018-07-09T21:40:26.217Z,58.20
2018-07-09T21:42:55.139Z,57.60
2018-07-09T21:45:24.079Z,57.30
2018-07-09T21:47:59.221Z,57.90
2018-07-09T21:50:22.159Z,57.30
2018-07-09T21:52:50.713Z,56.40
2018-07-09T21:55:19.478Z,56.90
2018-07-09T21:57:49.556Z,56.90
2018-07-09T22:00:18.321Z,58.30
2018-07-09T22:02:46.907Z,58.20
2018-07-09T22:05:16.400Z,62.20
2018-07-09T22:07:44.999Z,62.10
2018-07-09T22:10:13.751Z,59.20
2018-07-09T22:12:42.777Z,59.10
2018-07-09T22:15:11.807Z,60.60
2018-07-09T22:17:40.372Z,62.90
2018-07-09T22:20:09.515Z,61.90
2018-07-09T22:22:38.296Z,60.60
2018-07-09T22:25:06.923Z,61.70
2018-07-09T22:27:36.740Z,62.60
2018-07-09T22:30:05.201Z,62.60
2018-07-09T22:32:35.673Z,62.40
2018-07-09T22:35:05.442Z,62.40
2018-07-09T22:37:35.910Z,62.60
2018-07-09T22:40:05.565Z,62.60
2018-07-09T22:42:34.879Z,61.70
2018-07-09T22:45:04.392Z,61.80
2018-07-09T22:47:34.023Z,60.70
2018-07-09T22:50:04.428Z,60.50
2018-07-09T22:52:34.032Z,60.50
2018-07-09T22:55:04.446Z,62.90
2018-07-09T22:57:34.150Z,61.80
2018-07-09T23:00:03.773Z,61.80
2018-07-09T23:02:34.314Z,62.10
2018-07-09T23:05:03.989Z,63.00
2018-07-09T23:07:34.143Z,62.40
2018-07-09T23:10:04.158Z,62.00
2018-07-09T23:12:33.931Z,62.60
2018-07-09T23:15:04.332Z,63.30
2018-07-09T23:17:44.989Z,62.40
2018-07-09T23:20:14.576Z,63.40
2018-07-09T23:22:43.963Z,64.90
2018-07-09T23:25:14.218Z,65.20
2018-07-09T23:27:43.078Z,65.20
2018-07-09T23:30:11.561Z,64.50
2018-07-09T23:32:40.642Z,64.00
2018-07-09T23:35:09.256Z,64.40
2018-07-09T23:37:38.344Z,64.10
2018-07-09T23:40:07.133Z,65.10
2018-07-09T23:42:36.687Z,66.10
2018-07-09T23:45:05.308Z,66.10
2018-07-09T23:47:34.000Z,67.50
2018-07-09T23:50:02.674Z,65.20
2018-07-09T23:52:32.328Z,66.30
2018-07-09T23:55:01.006Z,64.40
2018-07-09T23:57:30.927Z,65.40
